PWSweather.com
Personal Weather Stations
Station Observations
MARICOPA
Cobblestone Farms, Maricopa, AZ 85139

Cobblestone FarmsMaricopa, AZ 85139

Lat: 33.076, Lon: -112.0445

Elevation: 1148

Station Type: LaCrosse 2310/15

http://weather.azkiwis.net

Latest ConditionsUpdated 4:30:02 PM MST Thursday, Sep 29, 2016
Currently Today's Max Today's Min Today's Average
Temperature 97.5°F36.4°C 97.5°F36.4°C 71.4°F21.9°C 81.1°F27.3°C
Dew Point 56.9°F13.8°C 66.6°F19.2°C 56.9°F13.8°C 60.4°F15.8°C
Winds 3.5 mph N5.6 kmh N 4.6 mph NE7.4 kmh NE - 1.6 mph 2.6 kmh
Wind Gusts 3.5 mph5.6 kmh 8.1 mph13.0 kmh - -
Humidity 26% 77% 26% 52%
Pressure 29.98 in1015.2 mb 30.11 in1019.6 mb 29.98 in1015.2 mb -
Precipitation - 0.06 in1.5 mm - -
Hour Temp Dew Point Humidity Winds Wind Gusts Pressure Precip Precip Rate Daily Precip Total
04:30 PM 97.5°F36.4°C 56.9°F13.8°C 26% 3.5 mph N5.6 kmh N 3.5 mph5.6 kmh 29.98 in1015.2 mb - 0.00 in0.0 mm 0.06 in1.5 mm
04:15 PM 97.3°F36.3°C 57.8°F14.3°C 27% Calm Calm 2.3 mph3.7 kmh 29.99 in1015.6 mb - 0.00 in0.0 mm 0.06 in1.5 mm
04:00 PM 97.5°F36.4°C 56.9°F13.8°C 26% 1.2 mph NNW1.9 kmh NNW 2.3 mph3.7 kmh 29.99 in1015.6 mb - 0.00 in0.0 mm 0.06 in1.5 mm
03:45 PM 97.2°F36.2°C 57.6°F14.2°C 27% 1.2 mph WSW1.9 kmh WSW 3.5 mph5.6 kmh 30.00 in1015.9 mb - 0.00 in0.0 mm 0.06 in1.5 mm
03:30 PM 97.2°F36.2°C 57.6°F14.2°C 27% 2.3 mph WSW3.7 kmh WSW 3.5 mph5.6 kmh 30.00 in1015.9 mb - 0.00 in0.0 mm 0.06 in1.5 mm
03:15 PM 97.3°F36.3°C 58.8°F14.9°C 28% Calm Calm 2.3 mph3.7 kmh 30.01 in1016.3 mb - 0.00 in0.0 mm 0.06 in1.5 mm
03:00 PM 96.8°F36.0°C 58.3°F14.6°C 28% 2.3 mph WSW3.7 kmh WSW 4.6 mph7.4 kmh 30.01 in1016.3 mb - 0.00 in0.0 mm 0.06 in1.5 mm
02:45 PM 96.4°F35.8°C 59.0°F15.0°C 29% Calm Calm 2.3 mph3.7 kmh 30.02 in1016.6 mb - 0.00 in0.0 mm 0.06 in1.5 mm
02:30 PM 96.1°F35.6°C 60.6°F15.9°C 31% 2.3 mph WSW3.7 kmh WSW 3.5 mph5.6 kmh 30.03 in1016.9 mb - 0.00 in0.0 mm 0.06 in1.5 mm
02:15 PM 95.2°F35.1°C 60.7°F15.9°C 32% 3.5 mph SW5.6 kmh SW 3.5 mph5.6 kmh 30.03 in1016.9 mb - 0.00 in0.0 mm 0.06 in1.5 mm
02:00 PM 94.3°F34.6°C 61.6°F16.4°C 34% 4.6 mph WSW7.4 kmh WSW 6.9 mph11.1 kmh 30.04 in1017.3 mb - 0.00 in0.0 mm 0.06 in1.5 mm
01:45 PM 93.7°F34.3°C 62.0°F16.7°C 35% 3.5 mph WSW5.6 kmh WSW 5.8 mph9.3 kmh 30.04 in1017.3 mb - 0.00 in0.0 mm 0.06 in1.5 mm
01:30 PM 93.0°F33.9°C 62.9°F17.2°C 37% 1.2 mph WSW1.9 kmh WSW 5.8 mph9.3 kmh 30.05 in1017.6 mb - 0.00 in0.0 mm 0.06 in1.5 mm
01:15 PM 92.8°F33.8°C 63.5°F17.5°C 38% 3.5 mph WSW5.6 kmh WSW 8.1 mph13.0 kmh 30.06 in1017.9 mb - 0.00 in0.0 mm 0.06 in1.5 mm
01:00 PM 91.8°F33.2°C 64.0°F17.8°C 40% 4.6 mph E7.4 kmh E 6.9 mph11.1 kmh 30.06 in1017.9 mb - 0.00 in0.0 mm 0.06 in1.5 mm
12:45 PM 91.3°F32.9°C 64.3°F17.9°C 41% 1.2 mph SE1.9 kmh SE 4.6 mph7.4 kmh 30.08 in1018.6 mb - 0.00 in0.0 mm 0.06 in1.5 mm
12:30 PM 90.7°F32.6°C 65.1°F18.4°C 43% 3.5 mph E5.6 kmh E 5.8 mph9.3 kmh 30.08 in1018.6 mb - 0.00 in0.0 mm 0.06 in1.5 mm
12:15 PM 89.3°F31.8°C 65.2°F18.4°C 45% 3.5 mph ESE5.6 kmh ESE 4.6 mph7.4 kmh 30.08 in1018.6 mb - 0.00 in0.0 mm 0.06 in1.5 mm
12:00 PM 87.8°F31.0°C 65.7°F18.7°C 48% 2.3 mph ENE3.7 kmh ENE 3.5 mph5.6 kmh 30.09 in1019.0 mb - 0.00 in0.0 mm 0.06 in1.5 mm
11:45 AM 86.4°F30.2°C 66.1°F18.9°C 51% 3.5 mph NE5.6 kmh NE 4.6 mph7.4 kmh 30.08 in1018.6 mb - 0.00 in0.0 mm 0.06 in1.5 mm
11:30 AM 84.0°F28.9°C 66.1°F18.9°C 55% 2.3 mph E3.7 kmh E 4.6 mph7.4 kmh 30.09 in1019.0 mb - 0.00 in0.0 mm 0.06 in1.5 mm
11:15 AM 82.3°F27.9°C 66.6°F19.2°C 59% 2.3 mph ENE3.7 kmh ENE 3.5 mph5.6 kmh 30.10 in1019.3 mb - 0.00 in0.0 mm 0.06 in1.5 mm
11:00 AM 79.2°F26.2°C 66.0°F18.9°C 64% 1.2 mph NE1.9 kmh NE 2.3 mph3.7 kmh 30.09 in1019.0 mb - 0.00 in0.0 mm 0.06 in1.5 mm
10:45 AM 77.7°F25.4°C 65.9°F18.8°C 67% 4.6 mph NE7.4 kmh NE 5.8 mph9.3 kmh 30.09 in1019.0 mb - 0.00 in0.0 mm 0.06 in1.5 mm
10:30 AM 76.8°F24.9°C 66.3°F19.1°C 70% Calm Calm 3.5 mph5.6 kmh 30.10 in1019.3 mb - 0.00 in0.0 mm 0.06 in1.5 mm
10:15 AM 75.6°F24.2°C 66.0°F18.9°C 72% 3.5 mph ENE5.6 kmh ENE 4.6 mph7.4 kmh 30.10 in1019.3 mb - 0.00 in0.0 mm 0.06 in1.5 mm
10:00 AM 75.0°F23.9°C 65.8°F18.8°C 73% 3.5 mph ESE5.6 kmh ESE 4.6 mph7.4 kmh 30.11 in1019.6 mb - 0.00 in0.0 mm 0.06 in1.5 mm
09:45 AM 74.5°F23.6°C 66.0°F18.9°C 75% 3.5 mph SE5.6 kmh SE 4.6 mph7.4 kmh 30.11 in1019.6 mb - 0.00 in0.0 mm 0.06 in1.5 mm
09:30 AM 73.2°F22.9°C 65.6°F18.7°C 77% Calm Calm -- 30.10 in1019.3 mb - 0.00 in0.0 mm 0.06 in1.5 mm
09:15 AM 72.1°F22.3°C 64.2°F17.9°C 76% 2.3 mph E3.7 kmh E 3.5 mph5.6 kmh 30.10 in1019.3 mb - 0.00 in0.0 mm 0.06 in1.5 mm
09:00 AM 71.4°F21.9°C 63.5°F17.5°C 76% 2.3 mph E3.7 kmh E 4.6 mph7.4 kmh 30.10 in1019.3 mb - 0.00 in0.0 mm 0.06 in1.5 mm
08:45 AM 71.6°F22.0°C 62.9°F17.2°C 74% 3.5 mph ESE5.6 kmh ESE 3.5 mph5.6 kmh 30.10 in1019.3 mb - 0.00 in0.0 mm 0.06 in1.5 mm
08:30 AM 72.3°F22.4°C 62.8°F17.1°C 72% 2.3 mph SE3.7 kmh SE 3.5 mph5.6 kmh 30.10 in1019.3 mb - 0.03 in0.8 mm 0.06 in1.5 mm
08:15 AM 73.6°F23.1°C 61.9°F16.6°C 67% 1.2 mph SE1.9 kmh SE 1.2 mph1.9 kmh 30.10 in1019.3 mb - 0.03 in0.8 mm 0.03 in0.8 mm
08:00 AM 74.3°F23.5°C 60.5°F15.8°C 62% 1.2 mph SSW1.9 kmh SSW 2.3 mph3.7 kmh 30.09 in1019.0 mb - 0.00 in0.0 mm 0.00 in0.0 mm
07:45 AM 74.5°F23.6°C 58.7°F14.8°C 58% 3.5 mph SE5.6 kmh SE 5.8 mph9.3 kmh 30.10 in1019.3 mb - 0.00 in0.0 mm 0.00 in0.0 mm
07:30 AM 73.8°F23.2°C 58.1°F14.5°C 58% 1.2 mph W1.9 kmh W 1.2 mph1.9 kmh 30.06 in1017.9 mb - 0.00 in0.0 mm 0.00 in0.0 mm
07:15 AM 73.8°F23.2°C 58.1°F14.5°C 58% Calm Calm -- 30.05 in1017.6 mb - 0.00 in0.0 mm 0.00 in0.0 mm
07:00 AM 73.8°F23.2°C 57.6°F14.2°C 57% Calm Calm -- 30.04 in1017.3 mb - 0.00 in0.0 mm 0.00 in0.0 mm
06:45 AM 73.9°F23.3°C 57.7°F14.3°C 57% Calm Calm -- 30.03 in1016.9 mb - 0.00 in0.0 mm 0.00 in0.0 mm
06:30 AM 74.1°F23.4°C 57.9°F14.4°C 57% Calm Calm 3.5 mph5.6 kmh 30.03 in1016.9 mb - 0.00 in0.0 mm 0.00 in0.0 mm
06:15 AM 74.3°F23.5°C 57.1°F13.9°C 55% Calm Calm -- 30.03 in1016.9 mb - 0.00 in0.0 mm 0.00 in0.0 mm
06:00 AM 74.5°F23.6°C 57.3°F14.1°C 55% Calm Calm -- 30.02 in1016.6 mb - 0.00 in0.0 mm 0.00 in0.0 mm
05:45 AM 74.7°F23.7°C 57.5°F14.2°C 55% 1.2 mph NNE1.9 kmh NNE 2.3 mph3.7 kmh 30.01 in1016.3 mb - 0.00 in0.0 mm 0.00 in0.0 mm
05:30 AM 74.8°F23.8°C 57.6°F14.2°C 55% 1.2 mph N1.9 kmh N 3.5 mph5.6 kmh 30.01 in1016.3 mb - 0.00 in0.0 mm 0.00 in0.0 mm
05:15 AM 74.8°F23.8°C 58.1°F14.5°C 56% 1.2 mph NNE1.9 kmh NNE -- 30.00 in1015.9 mb - 0.00 in0.0 mm 0.00 in0.0 mm
05:00 AM 74.8°F23.8°C 58.6°F14.8°C 57% 1.2 mph 1.9 kmh 2.3 mph3.7 kmh 30.00 in1015.9 mb - 0.00 in0.0 mm 0.00 in0.0 mm
04:45 AM 75.0°F23.9°C 58.8°F14.9°C 57% 3.5 mph NW5.6 kmh NW 3.5 mph5.6 kmh 30.00 in1015.9 mb - 0.00 in0.0 mm 0.00 in0.0 mm
04:30 AM 75.4°F24.1°C 59.1°F15.1°C 57% 3.5 mph NNE5.6 kmh NNE 4.6 mph7.4 kmh 29.99 in1015.6 mb - 0.00 in0.0 mm 0.00 in0.0 mm
04:15 AM 75.9°F24.4°C 59.1°F15.1°C 56% 2.3 mph NE3.7 kmh NE 3.5 mph5.6 kmh 29.99 in1015.6 mb - 0.00 in0.0 mm 0.00 in0.0 mm
04:00 AM 75.7°F24.3°C 57.9°F14.4°C 54% 2.3 mph S3.7 kmh S 3.5 mph5.6 kmh 30.02 in1016.6 mb - 0.00 in0.0 mm 0.00 in0.0 mm
03:45 AM 75.7°F24.3°C 57.9°F14.4°C 54% Calm Calm -- 30.02 in1016.6 mb - 0.00 in0.0 mm 0.00 in0.0 mm
03:30 AM 75.9°F24.4°C 58.1°F14.5°C 54% 2.3 mph WSW3.7 kmh WSW 3.5 mph5.6 kmh 30.02 in1016.6 mb - 0.00 in0.0 mm 0.00 in0.0 mm
03:15 AM 76.1°F24.5°C 57.7°F14.3°C 53% Calm Calm -- 30.01 in1016.3 mb - 0.00 in0.0 mm 0.00 in0.0 mm
03:00 AM 76.3°F24.6°C 57.4°F14.1°C 52% Calm Calm -- 30.00 in1015.9 mb - 0.00 in0.0 mm 0.00 in0.0 mm
02:45 AM 76.6°F24.8°C 57.7°F14.3°C 52% Calm Calm -- 30.01 in1016.3 mb - 0.00 in0.0 mm 0.00 in0.0 mm
02:30 AM 76.3°F24.6°C 57.4°F14.1°C 52% Calm Calm 3.5 mph5.6 kmh 30.01 in1016.3 mb - 0.00 in0.0 mm 0.00 in0.0 mm
02:15 AM 76.3°F24.6°C 57.4°F14.1°C 52% Calm Calm -- 29.99 in1015.6 mb - 0.00 in0.0 mm 0.00 in0.0 mm
02:00 AM 76.6°F24.8°C 57.7°F14.3°C 52% Calm Calm 1.2 mph1.9 kmh 30.00 in1015.9 mb - 0.00 in0.0 mm 0.00 in0.0 mm
01:45 AM 76.8°F24.9°C 57.3°F14.1°C 51% Calm Calm -- 30.00 in1015.9 mb - 0.00 in0.0 mm 0.00 in0.0 mm
01:30 AM 76.8°F24.9°C 57.3°F14.1°C 51% Calm Calm 1.2 mph1.9 kmh 30.00 in1015.9 mb - 0.00 in0.0 mm 0.00 in0.0 mm
01:15 AM 77.1°F25.1°C 57.6°F14.2°C 51% Calm Calm -- 29.99 in1015.6 mb - 0.00 in0.0 mm 0.00 in0.0 mm
01:00 AM 77.4°F25.2°C 57.3°F14.1°C 50% Calm Calm -- 29.98 in1015.2 mb - 0.00 in0.0 mm 0.00 in0.0 mm
12:45 AM 77.5°F25.3°C 57.4°F14.1°C 50% 2.3 mph E3.7 kmh E 3.5 mph5.6 kmh 29.98 in1015.2 mb - 0.00 in0.0 mm 0.00 in0.0 mm
12:30 AM 77.5°F25.3°C 58.0°F14.4°C 51% Calm Calm 2.3 mph3.7 kmh 29.99 in1015.6 mb - 0.00 in0.0 mm 0.00 in0.0 mm
12:15 AM 77.3°F25.2°C 57.8°F14.3°C 51% Calm Calm 2.3 mph3.7 kmh 29.99 in1015.6 mb - 0.00 in0.0 mm 0.00 in0.0 mm
12:00 AM 77.4°F25.2°C 57.8°F14.3°C 51% Calm Calm -- 29.99 in1015.6 mb - 0.00 in0.0 mm 0.00 in0.0 mm